Terminal Aerodrome Forecast
Issued by NWS

Home | Current Version | Previous Version | Text Only | Print | Product List | Glossary On
Versions: 1 2 3 4 5 6 7 8 9 10 11 12 13 14 15 16 17 18 19 20 21 22 23 24 25 26 27 28 29 30
000
FTUS41 KRNK 230304 AAA
TAFLWB
TAF AMD
KLWB 230304Z 2303/2324 21004KT P6SM -SHRA SCT035 OVC080
      TEMPO 2304/2308 3SM -SHRA OVC020
     FM230900 20004KT P6SM VCSH BKN007 OVC015 WS020/22035KT
     FM231300 23006KT P6SM BKN020
     FM231900 24012G22KT P6SM BKN050=

USA.gov is the U.S. government's official web portal to all federal, state and local government web resources and services.